sensor_id;sensor_type;location;lat;lon;timestamp;P1;durP1;ratioP1;P2;durP2;ratioP2
52106;SDS011;38105;52.968;5.974;2022-12-05T00:00:54;25.17;;;17.30;;
52106;SDS011;38105;52.968;5.974;2022-12-05T00:03:21;22.25;;;16.85;;
52106;SDS011;38105;52.968;5.974;2022-12-05T00:05:46;24.67;;;16.15;;
52106;SDS011;38105;52.968;5.974;2022-12-05T00:08:12;26.00;;;17.23;;
52106;SDS011;38105;52.968;5.974;2022-12-05T00:10:38;24.02;;;16.67;;
52106;SDS011;38105;52.968;5.974;2022-12-05T00:13:04;25.95;;;17.70;;
52106;SDS011;38105;52.968;5.974;2022-12-05T00:15:30;26.70;;;18.65;;
52106;SDS011;38105;52.968;5.974;2022-12-05T00:17:59;27.20;;;18.25;;
52106;SDS011;38105;52.968;5.974;2022-12-05T00:20:25;27.38;;;19.02;;
52106;SDS011;38105;52.968;5.974;2022-12-05T00:22:51;30.27;;;20.85;;
52106;SDS011;38105;52.968;5.974;2022-12-05T00:25:16;29.98;;;21.02;;
52106;SDS011;38105;52.968;5.974;2022-12-05T00:27:42;31.65;;;22.02;;
52106;SDS011;38105;52.968;5.974;2022-12-05T00:30:08;32.97;;;21.27;;
52106;SDS011;38105;52.968;5.974;2022-12-05T00:32:34;31.33;;;22.02;;
52106;SDS011;38105;52.968;5.974;2022-12-05T00:34:59;31.40;;;20.88;;
52106;SDS011;38105;52.968;5.974;2022-12-05T00:37:25;30.38;;;21.20;;
52106;SDS011;38105;52.968;5.974;2022-12-05T00:39:50;33.50;;;22.52;;
52106;SDS011;38105;52.968;5.974;2022-12-05T00:42:16;29.95;;;20.33;;
52106;SDS011;38105;52.968;5.974;2022-12-05T00:44:42;32.28;;;21.88;;
52106;SDS011;38105;52.968;5.974;2022-12-05T00:47:07;33.13;;;22.42;;
52106;SDS011;38105;52.968;5.974;2022-12-05T00:49:33;31.80;;;22.13;;
52106;SDS011;38105;52.968;5.974;2022-12-05T00:51:59;34.95;;;22.00;;
52106;SDS011;38105;52.968;5.974;2022-12-05T00:54:24;32.22;;;21.38;;
52106;SDS011;38105;52.968;5.974;2022-12-05T00:56:50;33.70;;;23.17;;
52106;SDS011;38105;52.968;5.974;2022-12-05T00:59:22;29.75;;;21.13;;
52106;SDS011;38105;52.968;5.974;2022-12-05T01:01:48;33.47;;;22.58;;
52106;SDS011;38105;52.968;5.974;2022-12-05T01:04:19;32.88;;;22.17;;
52106;SDS011;38105;52.968;5.974;2022-12-05T01:06:46;35.78;;;24.00;;
52106;SDS011;38105;52.968;5.974;2022-12-05T01:09:14;32.05;;;21.85;;
52106;SDS011;38105;52.968;5.974;2022-12-05T01:11:42;38.00;;;23.42;;
52106;SDS011;38105;52.968;5.974;2022-12-05T01:14:09;30.83;;;21.45;;
52106;SDS011;38105;52.968;5.974;2022-12-05T01:16:37;30.42;;;21.25;;
52106;SDS011;38105;52.968;5.974;2022-12-05T01:19:12;34.38;;;22.38;;
52106;SDS011;38105;52.968;5.974;2022-12-05T01:21:40;31.38;;;21.38;;
52106;SDS011;38105;52.968;5.974;2022-12-05T01:24:06;32.92;;;22.10;;
52106;SDS011;38105;52.968;5.974;2022-12-05T01:26:32;34.45;;;22.98;;
52106;SDS011;38105;52.968;5.974;2022-12-05T01:28:58;32.05;;;21.55;;
52106;SDS011;38105;52.968;5.974;2022-12-05T01:31:26;29.15;;;21.38;;
52106;SDS011;38105;52.968;5.974;2022-12-05T01:33:55;31.38;;;22.45;;
52106;SDS011;38105;52.968;5.974;2022-12-05T01:36:22;36.17;;;23.65;;
52106;SDS011;38105;52.968;5.974;2022-12-05T01:38:48;32.70;;;22.48;;
52106;SDS011;38105;52.968;5.974;2022-12-05T01:41:16;34.70;;;24.42;;
52106;SDS011;38105;52.968;5.974;2022-12-05T01:46:21;36.70;;;23.90;;
52106;SDS011;38105;52.968;5.974;2022-12-05T01:48:47;38.33;;;25.40;;
52106;SDS011;38105;52.968;5.974;2022-12-05T01:51:14;41.83;;;25.90;;
52106;SDS011;38105;52.968;5.974;2022-12-05T01:53:40;41.00;;;26.80;;
52106;SDS011;38105;52.968;5.974;2022-12-05T01:56:06;39.75;;;26.77;;
52106;SDS011;38105;52.968;5.974;2022-12-05T01:58:34;34.83;;;24.60;;
52106;SDS011;38105;52.968;5.974;2022-12-05T02:01:02;38.70;;;26.80;;
52106;SDS011;38105;52.968;5.974;2022-12-05T02:03:28;38.85;;;26.13;;
52106;SDS011;38105;52.968;5.974;2022-12-05T02:05:55;39.05;;;24.95;;
52106;SDS011;38105;52.968;5.974;2022-12-05T02:08:22;40.53;;;27.05;;
52106;SDS011;38105;52.968;5.974;2022-12-05T02:10:52;37.15;;;25.45;;
52106;SDS011;38105;52.968;5.974;2022-12-05T02:16:11;37.47;;;25.50;;
52106;SDS011;38105;52.968;5.974;2022-12-05T02:24:54;42.13;;;27.00;;
52106;SDS011;38105;52.968;5.974;2022-12-05T02:38:17;37.88;;;25.48;;
52106;SDS011;38105;52.968;5.974;2022-12-05T02:41:01;35.22;;;24.88;;
52106;SDS011;38105;52.968;5.974;2022-12-05T02:46:22;38.47;;;24.60;;
52106;SDS011;38105;52.968;5.974;2022-12-05T02:48:50;37.33;;;24.95;;
52106;SDS011;38105;52.968;5.974;2022-12-05T02:51:24;40.22;;;24.92;;
52106;SDS011;38105;52.968;5.974;2022-12-05T02:53:55;35.47;;;23.23;;
52106;SDS011;38105;52.968;5.974;2022-12-05T02:56:25;38.63;;;24.33;;
52106;SDS011;38105;52.968;5.974;2022-12-05T02:58:53;28.08;;;20.83;;
52106;SDS011;38105;52.968;5.974;2022-12-05T03:01:20;35.80;;;24.92;;
52106;SDS011;38105;52.968;5.974;2022-12-05T03:03:48;34.22;;;23.52;;
52106;SDS011;38105;52.968;5.974;2022-12-05T03:06:15;34.92;;;24.38;;
52106;SDS011;38105;52.968;5.974;2022-12-05T03:08:57;39.35;;;24.80;;
52106;SDS011;38105;52.968;5.974;2022-12-05T03:11:27;34.83;;;23.80;;
52106;SDS011;38105;52.968;5.974;2022-12-05T03:13:57;36.75;;;24.42;;
52106;SDS011;38105;52.968;5.974;2022-12-05T03:16:30;30.20;;;23.00;;
52106;SDS011;38105;52.968;5.974;2022-12-05T03:19:01;31.23;;;22.55;;
52106;SDS011;38105;52.968;5.974;2022-12-05T03:21:49;31.23;;;22.67;;
52106;SDS011;38105;52.968;5.974;2022-12-05T03:24:19;34.78;;;21.83;;
52106;SDS011;38105;52.968;5.974;2022-12-05T03:29:28;28.42;;;18.77;;
52106;SDS011;38105;52.968;5.974;2022-12-05T03:32:07;24.65;;;17.77;;
52106;SDS011;38105;52.968;5.974;2022-12-05T03:37:22;22.60;;;16.25;;
52106;SDS011;38105;52.968;5.974;2022-12-05T03:39:57;24.13;;;17.10;;
52106;SDS011;38105;52.968;5.974;2022-12-05T03:42:33;21.35;;;16.98;;
52106;SDS011;38105;52.968;5.974;2022-12-05T03:45:07;20.20;;;16.25;;
52106;SDS011;38105;52.968;5.974;2022-12-05T03:47:43;22.25;;;16.13;;
52106;SDS011;38105;52.968;5.974;2022-12-05T03:50:18;20.45;;;14.95;;
52106;SDS011;38105;52.968;5.974;2022-12-05T03:55:28;18.70;;;14.02;;
52106;SDS011;38105;52.968;5.974;2022-12-05T03:58:01;20.52;;;14.55;;
52106;SDS011;38105;52.968;5.974;2022-12-05T04:00:33;21.00;;;16.00;;
52106;SDS011;38105;52.968;5.974;2022-12-05T04:03:06;20.30;;;14.02;;
52106;SDS011;38105;52.968;5.974;2022-12-05T04:11:13;19.83;;;14.68;;
52106;SDS011;38105;52.968;5.974;2022-12-05T04:13:44;15.45;;;13.45;;
52106;SDS011;38105;52.968;5.974;2022-12-05T04:16:18;17.13;;;13.60;;
52106;SDS011;38105;52.968;5.974;2022-12-05T04:19:08;18.60;;;12.18;;
52106;SDS011;38105;52.968;5.974;2022-12-05T04:21:44;15.82;;;12.57;;
52106;SDS011;38105;52.968;5.974;2022-12-05T04:24:21;16.20;;;12.90;;
52106;SDS011;38105;52.968;5.974;2022-12-05T04:27:17;15.05;;;11.90;;
52106;SDS011;38105;52.968;5.974;2022-12-05T04:30:17;17.67;;;12.57;;
52106;SDS011;38105;52.968;5.974;2022-12-05T04:32:47;15.07;;;13.05;;
52106;SDS011;38105;52.968;5.974;2022-12-05T04:35:29;16.65;;;12.35;;
52106;SDS011;38105;52.968;5.974;2022-12-05T04:38:05;17.67;;;13.05;;
52106;SDS011;38105;52.968;5.974;2022-12-05T04:40:40;17.83;;;12.40;;
52106;SDS011;38105;52.968;5.974;2022-12-05T04:43:13;14.80;;;11.82;;
52106;SDS011;38105;52.968;5.974;2022-12-05T04:45:40;15.43;;;12.57;;
52106;SDS011;38105;52.968;5.974;2022-12-05T04:48:11;14.50;;;11.73;;
52106;SDS011;38105;52.968;5.974;2022-12-05T04:50:40;15.73;;;11.37;;
52106;SDS011;38105;52.968;5.974;2022-12-05T04:53:09;16.35;;;12.48;;
52106;SDS011;38105;52.968;5.974;2022-12-05T04:55:36;16.48;;;12.30;;
52106;SDS011;38105;52.968;5.974;2022-12-05T04:58:07;16.83;;;12.10;;
52106;SDS011;38105;52.968;5.974;2022-12-05T05:00:35;13.48;;;10.80;;
52106;SDS011;38105;52.968;5.974;2022-12-05T05:06:06;15.07;;;11.55;;
52106;SDS011;38105;52.968;5.974;2022-12-05T05:08:34;19.17;;;11.80;;
52106;SDS011;38105;52.968;5.974;2022-12-05T05:11:05;16.52;;;10.88;;
52106;SDS011;38105;52.968;5.974;2022-12-05T05:13:40;15.70;;;11.32;;
52106;SDS011;38105;52.968;5.974;2022-12-05T05:16:06;13.82;;;11.60;;
52106;SDS011;38105;52.968;5.974;2022-12-05T05:18:32;16.05;;;11.65;;
52106;SDS011;38105;52.968;5.974;2022-12-05T05:20:58;14.65;;;11.80;;
52106;SDS011;38105;52.968;5.974;2022-12-05T05:23:23;15.27;;;12.35;;
52106;SDS011;38105;52.968;5.974;2022-12-05T05:25:53;16.85;;;12.13;;
52106;SDS011;38105;52.968;5.974;2022-12-05T05:28:19;15.73;;;12.90;;
52106;SDS011;38105;52.968;5.974;2022-12-05T05:30:46;16.67;;;12.13;;
52106;SDS011;38105;52.968;5.974;2022-12-05T05:33:11;18.58;;;12.25;;
52106;SDS011;38105;52.968;5.974;2022-12-05T05:35:37;15.35;;;12.43;;
52106;SDS011;38105;52.968;5.974;2022-12-05T05:38:03;18.30;;;12.65;;
52106;SDS011;38105;52.968;5.974;2022-12-05T05:40:29;18.38;;;12.43;;
52106;SDS011;38105;52.968;5.974;2022-12-05T05:42:54;17.45;;;12.40;;
52106;SDS011;38105;52.968;5.974;2022-12-05T05:45:20;18.48;;;12.45;;
52106;SDS011;38105;52.968;5.974;2022-12-05T05:47:49;17.67;;;12.63;;
52106;SDS011;38105;52.968;5.974;2022-12-05T05:50:15;17.90;;;12.35;;
52106;SDS011;38105;52.968;5.974;2022-12-05T05:52:40;18.02;;;12.57;;
52106;SDS011;38105;52.968;5.974;2022-12-05T05:55:06;15.52;;;11.75;;
52106;SDS011;38105;52.968;5.974;2022-12-05T05:57:33;16.15;;;11.60;;
52106;SDS011;38105;52.968;5.974;2022-12-05T05:59:59;19.77;;;13.15;;
52106;SDS011;38105;52.968;5.974;2022-12-05T06:02:30;15.93;;;12.43;;
52106;SDS011;38105;52.968;5.974;2022-12-05T06:04:56;17.58;;;12.20;;
52106;SDS011;38105;52.968;5.974;2022-12-05T06:07:22;18.88;;;13.00;;
52106;SDS011;38105;52.968;5.974;2022-12-05T06:09:47;17.48;;;12.27;;
52106;SDS011;38105;52.968;5.974;2022-12-05T06:12:13;17.15;;;11.73;;
52106;SDS011;38105;52.968;5.974;2022-12-05T06:14:39;17.73;;;11.75;;
52106;SDS011;38105;52.968;5.974;2022-12-05T06:17:04;18.58;;;12.18;;
52106;SDS011;38105;52.968;5.974;2022-12-05T06:19:30;15.30;;;11.00;;
52106;SDS011;38105;52.968;5.974;2022-12-05T06:21:55;13.73;;;11.57;;
52106;SDS011;38105;52.968;5.974;2022-12-05T06:24:21;15.50;;;10.27;;
52106;SDS011;38105;52.968;5.974;2022-12-05T06:26:47;14.52;;;9.80;;
52106;SDS011;38105;52.968;5.974;2022-12-05T06:29:12;14.70;;;10.82;;
52106;SDS011;38105;52.968;5.974;2022-12-05T06:31:38;18.42;;;11.40;;
52106;SDS011;38105;52.968;5.974;2022-12-05T06:34:05;15.82;;;11.68;;
52106;SDS011;38105;52.968;5.974;2022-12-05T06:36:31;15.70;;;11.18;;
52106;SDS011;38105;52.968;5.974;2022-12-05T06:38:58;14.35;;;10.60;;
52106;SDS011;38105;52.968;5.974;2022-12-05T06:41:24;13.65;;;10.07;;
52106;SDS011;38105;52.968;5.974;2022-12-05T06:43:51;15.13;;;10.50;;
52106;SDS011;38105;52.968;5.974;2022-12-05T06:46:18;16.15;;;10.63;;
52106;SDS011;38105;52.968;5.974;2022-12-05T06:48:44;13.07;;;9.93;;
52106;SDS011;38105;52.968;5.974;2022-12-05T06:51:10;14.88;;;11.13;;
52106;SDS011;38105;52.968;5.974;2022-12-05T06:53:38;18.38;;;11.07;;
52106;SDS011;38105;52.968;5.974;2022-12-05T06:56:05;14.95;;;11.48;;
52106;SDS011;38105;52.968;5.974;2022-12-05T06:58:32;15.10;;;10.80;;
52106;SDS011;38105;52.968;5.974;2022-12-05T07:00:58;16.92;;;11.27;;
52106;SDS011;38105;52.968;5.974;2022-12-05T07:03:42;13.00;;;10.43;;
52106;SDS011;38105;52.968;5.974;2022-12-05T07:06:08;17.17;;;11.45;;
52106;SDS011;38105;52.968;5.974;2022-12-05T07:08:34;16.42;;;11.50;;
52106;SDS011;38105;52.968;5.974;2022-12-05T07:11:00;15.88;;;10.80;;
52106;SDS011;38105;52.968;5.974;2022-12-05T07:13:26;13.77;;;10.70;;
52106;SDS011;38105;52.968;5.974;2022-12-05T07:15:52;16.48;;;11.10;;
52106;SDS011;38105;52.968;5.974;2022-12-05T07:18:17;16.13;;;11.27;;
52106;SDS011;38105;52.968;5.974;2022-12-05T07:20:43;15.77;;;11.35;;
52106;SDS011;38105;52.968;5.974;2022-12-05T07:23:09;17.02;;;11.20;;
52106;SDS011;38105;52.968;5.974;2022-12-05T07:25:41;21.83;;;12.13;;
52106;SDS011;38105;52.968;5.974;2022-12-05T07:28:07;13.68;;;10.38;;
52106;SDS011;38105;52.968;5.974;2022-12-05T07:30:33;16.00;;;10.73;;
52106;SDS011;38105;52.968;5.974;2022-12-05T07:32:59;16.45;;;11.15;;
52106;SDS011;38105;52.968;5.974;2022-12-05T07:35:24;14.88;;;10.85;;
52106;SDS011;38105;52.968;5.974;2022-12-05T07:37:50;14.10;;;9.82;;
52106;SDS011;38105;52.968;5.974;2022-12-05T07:40:16;15.90;;;10.25;;
52106;SDS011;38105;52.968;5.974;2022-12-05T07:42:41;17.20;;;11.23;;
52106;SDS011;38105;52.968;5.974;2022-12-05T07:45:07;20.75;;;11.80;;
52106;SDS011;38105;52.968;5.974;2022-12-05T07:47:33;16.65;;;11.18;;
52106;SDS011;38105;52.968;5.974;2022-12-05T07:49:59;16.75;;;10.32;;
52106;SDS011;38105;52.968;5.974;2022-12-05T07:52:25;22.17;;;11.50;;
52106;SDS011;38105;52.968;5.974;2022-12-05T07:54:52;20.80;;;11.90;;
52106;SDS011;38105;52.968;5.974;2022-12-05T07:57:18;21.40;;;11.73;;
52106;SDS011;38105;52.968;5.974;2022-12-05T07:59:43;19.42;;;11.57;;
52106;SDS011;38105;52.968;5.974;2022-12-05T08:02:09;17.40;;;10.57;;
52106;SDS011;38105;52.968;5.974;2022-12-05T08:04:35;20.17;;;12.10;;
52106;SDS011;38105;52.968;5.974;2022-12-05T08:07:00;20.13;;;11.18;;
52106;SDS011;38105;52.968;5.974;2022-12-05T08:09:26;19.20;;;10.90;;
52106;SDS011;38105;52.968;5.974;2022-12-05T08:11:52;18.83;;;12.13;;
52106;SDS011;38105;52.968;5.974;2022-12-05T08:14:17;19.75;;;12.32;;
52106;SDS011;38105;52.968;5.974;2022-12-05T08:16:43;20.55;;;11.63;;
52106;SDS011;38105;52.968;5.974;2022-12-05T08:19:09;21.30;;;12.00;;
52106;SDS011;38105;52.968;5.974;2022-12-05T08:21:37;20.50;;;12.45;;
52106;SDS011;38105;52.968;5.974;2022-12-05T08:24:04;22.85;;;13.20;;
52106;SDS011;38105;52.968;5.974;2022-12-05T08:26:30;21.45;;;12.82;;
52106;SDS011;38105;52.968;5.974;2022-12-05T08:31:26;25.65;;;13.88;;
52106;SDS011;38105;52.968;5.974;2022-12-05T08:33:54;24.15;;;13.90;;
52106;SDS011;38105;52.968;5.974;2022-12-05T08:36:22;20.33;;;11.50;;
52106;SDS011;38105;52.968;5.974;2022-12-05T08:38:47;22.98;;;13.30;;
52106;SDS011;38105;52.968;5.974;2022-12-05T08:41:14;22.08;;;13.27;;
52106;SDS011;38105;52.968;5.974;2022-12-05T08:43:41;21.10;;;13.13;;
52106;SDS011;38105;52.968;5.974;2022-12-05T08:46:08;24.38;;;13.60;;
52106;SDS011;38105;52.968;5.974;2022-12-05T08:48:34;25.90;;;14.18;;
52106;SDS011;38105;52.968;5.974;2022-12-05T08:51:03;24.67;;;13.70;;
52106;SDS011;38105;52.968;5.974;2022-12-05T08:53:34;25.33;;;13.40;;
52106;SDS011;38105;52.968;5.974;2022-12-05T08:56:00;21.92;;;13.80;;
52106;SDS011;38105;52.968;5.974;2022-12-05T08:58:27;28.20;;;13.05;;
52106;SDS011;38105;52.968;5.974;2022-12-05T09:00:53;23.20;;;12.75;;
52106;SDS011;38105;52.968;5.974;2022-12-05T09:10:04;23.80;;;12.07;;
52106;SDS011;38105;52.968;5.974;2022-12-05T09:12:30;23.90;;;12.55;;
52106;SDS011;38105;52.968;5.974;2022-12-05T09:14:56;26.63;;;13.75;;
52106;SDS011;38105;52.968;5.974;2022-12-05T09:17:22;22.67;;;12.10;;
52106;SDS011;38105;52.968;5.974;2022-12-05T09:19:50;22.15;;;12.82;;
52106;SDS011;38105;52.968;5.974;2022-12-05T09:22:16;29.33;;;11.95;;
52106;SDS011;38105;52.968;5.974;2022-12-05T09:24:42;20.85;;;11.25;;
52106;SDS011;38105;52.968;5.974;2022-12-05T09:27:07;21.85;;;11.10;;
52106;SDS011;38105;52.968;5.974;2022-12-05T09:29:33;26.30;;;11.82;;
52106;SDS011;38105;52.968;5.974;2022-12-05T09:31:59;20.70;;;10.30;;
52106;SDS011;38105;52.968;5.974;2022-12-05T09:34:25;18.95;;;10.52;;
52106;SDS011;38105;52.968;5.974;2022-12-05T09:36:51;20.55;;;10.52;;
52106;SDS011;38105;52.968;5.974;2022-12-05T09:52:39;21.33;;;9.48;;
52106;SDS011;38105;52.968;5.974;2022-12-05T09:55:14;17.10;;;10.13;;
52106;SDS011;38105;52.968;5.974;2022-12-05T10:00:16;20.17;;;9.52;;
52106;SDS011;38105;52.968;5.974;2022-12-05T10:02:44;23.80;;;11.07;;
52106;SDS011;38105;52.968;5.974;2022-12-05T10:05:24;22.38;;;10.50;;
52106;SDS011;38105;52.968;5.974;2022-12-05T10:08:02;20.00;;;10.60;;
52106;SDS011;38105;52.968;5.974;2022-12-05T10:13:15;22.20;;;10.40;;
52106;SDS011;38105;52.968;5.974;2022-12-05T10:16:09;21.83;;;10.40;;
52106;SDS011;38105;52.968;5.974;2022-12-05T10:18:45;18.98;;;10.77;;
52106;SDS011;38105;52.968;5.974;2022-12-05T10:26:22;17.20;;;10.25;;
52106;SDS011;38105;52.968;5.974;2022-12-05T10:31:36;22.90;;;12.07;;
52106;SDS011;38105;52.968;5.974;2022-12-05T10:34:09;23.83;;;12.48;;
52106;SDS011;38105;52.968;5.974;2022-12-05T10:37:27;24.05;;;13.15;;
52106;SDS011;38105;52.968;5.974;2022-12-05T10:39:34;23.00;;;14.23;;
52106;SDS011;38105;52.968;5.974;2022-12-05T10:42:00;26.48;;;14.02;;
52106;SDS011;38105;52.968;5.974;2022-12-05T10:44:25;32.80;;;16.02;;
52106;SDS011;38105;52.968;5.974;2022-12-05T10:46:51;23.65;;;14.25;;
52106;SDS011;38105;52.968;5.974;2022-12-05T10:49:17;23.63;;;13.57;;
52106;SDS011;38105;52.968;5.974;2022-12-05T10:51:43;24.60;;;13.63;;
52106;SDS011;38105;52.968;5.974;2022-12-05T10:54:12;27.50;;;13.23;;
52106;SDS011;38105;52.968;5.974;2022-12-05T10:59:13;30.98;;;14.50;;
52106;SDS011;38105;52.968;5.974;2022-12-05T11:01:45;23.38;;;13.90;;
52106;SDS011;38105;52.968;5.974;2022-12-05T11:07:09;34.78;;;16.40;;
52106;SDS011;38105;52.968;5.974;2022-12-05T11:09:50;23.00;;;14.25;;
52106;SDS011;38105;52.968;5.974;2022-12-05T11:12:23;27.70;;;14.82;;
52106;SDS011;38105;52.968;5.974;2022-12-05T11:20:01;28.05;;;13.73;;
52106;SDS011;38105;52.968;5.974;2022-12-05T11:22:50;39.10;;;20.02;;
52106;SDS011;38105;52.968;5.974;2022-12-05T11:27:58;31.50;;;16.42;;
52106;SDS011;38105;52.968;5.974;2022-12-05T11:31:01;29.35;;;19.52;;
52106;SDS011;38105;52.968;5.974;2022-12-05T11:33:41;23.67;;;13.60;;
52106;SDS011;38105;52.968;5.974;2022-12-05T11:36:11;21.08;;;12.68;;
52106;SDS011;38105;52.968;5.974;2022-12-05T11:38:38;27.58;;;14.20;;
52106;SDS011;38105;52.968;5.974;2022-12-05T11:41:25;25.10;;;16.40;;
52106;SDS011;38105;52.968;5.974;2022-12-05T11:47:15;21.65;;;12.95;;
52106;SDS011;38105;52.968;5.974;2022-12-05T11:50:07;22.73;;;11.50;;
52106;SDS011;38105;52.968;5.974;2022-12-05T11:55:28;20.05;;;11.43;;
52106;SDS011;38105;52.968;5.974;2022-12-05T11:58:20;19.63;;;10.63;;
52106;SDS011;38105;52.968;5.974;2022-12-05T12:01:08;15.80;;;10.77;;
52106;SDS011;38105;52.968;5.974;2022-12-05T12:06:30;15.95;;;9.00;;
52106;SDS011;38105;52.968;5.974;2022-12-05T12:17:40;16.50;;;10.27;;
52106;SDS011;38105;52.968;5.974;2022-12-05T12:20:41;19.10;;;10.48;;
52106;SDS011;38105;52.968;5.974;2022-12-05T12:23:28;16.13;;;9.73;;
52106;SDS011;38105;52.968;5.974;2022-12-05T12:26:12;14.85;;;9.70;;
52106;SDS011;38105;52.968;5.974;2022-12-05T12:29:06;20.00;;;9.35;;
52106;SDS011;38105;52.968;5.974;2022-12-05T12:40:33;16.13;;;8.60;;
52106;SDS011;38105;52.968;5.974;2022-12-05T12:43:26;20.10;;;9.93;;
52106;SDS011;38105;52.968;5.974;2022-12-05T12:49:08;14.48;;;9.80;;
52106;SDS011;38105;52.968;5.974;2022-12-05T12:51:56;17.90;;;8.75;;
52106;SDS011;38105;52.968;5.974;2022-12-05T12:57:11;13.93;;;7.80;;
52106;SDS011;38105;52.968;5.974;2022-12-05T12:59:48;11.80;;;6.97;;
52106;SDS011;38105;52.968;5.974;2022-12-05T13:05:18;15.25;;;7.93;;
52106;SDS011;38105;52.968;5.974;2022-12-05T13:10:40;12.88;;;6.75;;
52106;SDS011;38105;52.968;5.974;2022-12-05T13:15:41;12.50;;;5.95;;
52106;SDS011;38105;52.968;5.974;2022-12-05T13:18:19;10.70;;;5.72;;
52106;SDS011;38105;52.968;5.974;2022-12-05T13:20:47;10.20;;;6.82;;
52106;SDS011;38105;52.968;5.974;2022-12-05T13:23:17;7.10;;;4.93;;
52106;SDS011;38105;52.968;5.974;2022-12-05T13:25:45;8.48;;;5.05;;
52106;SDS011;38105;52.968;5.974;2022-12-05T13:28:32;6.72;;;4.65;;
52106;SDS011;38105;52.968;5.974;2022-12-05T13:31:09;7.47;;;4.22;;
52106;SDS011;38105;52.968;5.974;2022-12-05T13:33:42;7.60;;;4.13;;
52106;SDS011;38105;52.968;5.974;2022-12-05T13:36:16;7.80;;;4.43;;
52106;SDS011;38105;52.968;5.974;2022-12-05T13:39:03;10.38;;;4.45;;
52106;SDS011;38105;52.968;5.974;2022-12-05T13:41:53;6.55;;;4.35;;
52106;SDS011;38105;52.968;5.974;2022-12-05T13:44:46;5.90;;;3.55;;
52106;SDS011;38105;52.968;5.974;2022-12-05T13:47:29;7.43;;;4.07;;
52106;SDS011;38105;52.968;5.974;2022-12-05T13:52:52;7.25;;;3.25;;
52106;SDS011;38105;52.968;5.974;2022-12-05T13:58:00;6.18;;;3.50;;
52106;SDS011;38105;52.968;5.974;2022-12-05T14:00:28;7.00;;;3.58;;
52106;SDS011;38105;52.968;5.974;2022-12-05T14:02:59;7.18;;;3.60;;
52106;SDS011;38105;52.968;5.974;2022-12-05T14:15:41;6.10;;;3.15;;
52106;SDS011;38105;52.968;5.974;2022-12-05T14:26:30;5.63;;;2.90;;
52106;SDS011;38105;52.968;5.974;2022-12-05T14:29:29;6.68;;;3.80;;
52106;SDS011;38105;52.968;5.974;2022-12-05T14:32:16;5.15;;;3.10;;
52106;SDS011;38105;52.968;5.974;2022-12-05T14:39:56;6.22;;;3.20;;
52106;SDS011;38105;52.968;5.974;2022-12-05T14:42:36;4.65;;;3.00;;
52106;SDS011;38105;52.968;5.974;2022-12-05T14:46:14;7.38;;;3.53;;
52106;SDS011;38105;52.968;5.974;2022-12-05T14:48:05;5.72;;;3.38;;
52106;SDS011;38105;52.968;5.974;2022-12-05T14:50:51;6.85;;;3.67;;
52106;SDS011;38105;52.968;5.974;2022-12-05T14:55:55;6.07;;;3.55;;
52106;SDS011;38105;52.968;5.974;2022-12-05T15:01:22;6.82;;;3.70;;
52106;SDS011;38105;52.968;5.974;2022-12-05T15:03:57;8.05;;;3.92;;
52106;SDS011;38105;52.968;5.974;2022-12-05T15:07:08;8.43;;;4.07;;
52106;SDS011;38105;52.968;5.974;2022-12-05T15:09:36;8.05;;;4.35;;
52106;SDS011;38105;52.968;5.974;2022-12-05T15:14:52;7.40;;;4.15;;
52106;SDS011;38105;52.968;5.974;2022-12-05T15:17:34;9.15;;;3.58;;
52106;SDS011;38105;52.968;5.974;2022-12-05T15:22:44;10.70;;;4.00;;
52106;SDS011;38105;52.968;5.974;2022-12-05T15:25:23;10.95;;;4.50;;
52106;SDS011;38105;52.968;5.974;2022-12-05T15:27:52;11.18;;;4.47;;
52106;SDS011;38105;52.968;5.974;2022-12-05T15:30:19;6.80;;;4.35;;
52106;SDS011;38105;52.968;5.974;2022-12-05T15:32:44;6.18;;;3.78;;
52106;SDS011;38105;52.968;5.974;2022-12-05T15:35:10;7.72;;;4.13;;
52106;SDS011;38105;52.968;5.974;2022-12-05T15:42:53;9.05;;;4.55;;
52106;SDS011;38105;52.968;5.974;2022-12-05T15:47:52;8.00;;;4.72;;
52106;SDS011;38105;52.968;5.974;2022-12-05T15:53:12;7.80;;;4.35;;
52106;SDS011;38105;52.968;5.974;2022-12-05T15:55:37;8.63;;;4.60;;
52106;SDS011;38105;52.968;5.974;2022-12-05T16:00:49;7.28;;;4.30;;
52106;SDS011;38105;52.968;5.974;2022-12-05T16:03:22;9.07;;;4.78;;
52106;SDS011;38105;52.968;5.974;2022-12-05T16:06:18;8.73;;;4.53;;
52106;SDS011;38105;52.968;5.974;2022-12-05T16:09:05;7.20;;;4.40;;
52106;SDS011;38105;52.968;5.974;2022-12-05T16:11:32;9.68;;;5.07;;
52106;SDS011;38105;52.968;5.974;2022-12-05T16:14:00;8.02;;;4.22;;
52106;SDS011;38105;52.968;5.974;2022-12-05T16:16:30;6.43;;;4.10;;
52106;SDS011;38105;52.968;5.974;2022-12-05T16:19:33;8.02;;;4.90;;
52106;SDS011;38105;52.968;5.974;2022-12-05T16:22:01;7.70;;;4.72;;
52106;SDS011;38105;52.968;5.974;2022-12-05T16:24:59;7.35;;;5.00;;
52106;SDS011;38105;52.968;5.974;2022-12-05T16:27:35;9.35;;;5.28;;
52106;SDS011;38105;52.968;5.974;2022-12-05T16:32:37;7.32;;;4.90;;
52106;SDS011;38105;52.968;5.974;2022-12-05T16:35:24;10.32;;;5.13;;
52106;SDS011;38105;52.968;5.974;2022-12-05T16:45:49;6.45;;;5.22;;
52106;SDS011;38105;52.968;5.974;2022-12-05T16:48:21;6.95;;;4.72;;
52106;SDS011;38105;52.968;5.974;2022-12-05T16:50:51;10.85;;;7.03;;
52106;SDS011;38105;52.968;5.974;2022-12-05T16:53:36;10.90;;;6.30;;
52106;SDS011;38105;52.968;5.974;2022-12-05T16:56:03;9.77;;;5.57;;
52106;SDS011;38105;52.968;5.974;2022-12-05T16:58:30;8.88;;;5.55;;
52106;SDS011;38105;52.968;5.974;2022-12-05T17:01:05;10.57;;;6.10;;
52106;SDS011;38105;52.968;5.974;2022-12-05T17:03:32;6.95;;;4.53;;
52106;SDS011;38105;52.968;5.974;2022-12-05T17:05:58;8.55;;;5.30;;
52106;SDS011;38105;52.968;5.974;2022-12-05T17:08:24;7.40;;;4.85;;
52106;SDS011;38105;52.968;5.974;2022-12-05T17:10:51;8.30;;;4.88;;
52106;SDS011;38105;52.968;5.974;2022-12-05T17:13:17;9.10;;;4.78;;
52106;SDS011;38105;52.968;5.974;2022-12-05T17:15:44;6.57;;;4.50;;
52106;SDS011;38105;52.968;5.974;2022-12-05T17:18:14;6.50;;;4.22;;
52106;SDS011;38105;52.968;5.974;2022-12-05T17:20:42;10.05;;;4.80;;
52106;SDS011;38105;52.968;5.974;2022-12-05T17:23:10;7.25;;;4.32;;
52106;SDS011;38105;52.968;5.974;2022-12-05T17:25:37;7.15;;;4.78;;
52106;SDS011;38105;52.968;5.974;2022-12-05T17:28:05;6.97;;;4.60;;
52106;SDS011;38105;52.968;5.974;2022-12-05T17:30:31;7.32;;;4.32;;
52106;SDS011;38105;52.968;5.974;2022-12-05T17:32:58;6.25;;;4.55;;
52106;SDS011;38105;52.968;5.974;2022-12-05T17:35:26;7.68;;;5.03;;
52106;SDS011;38105;52.968;5.974;2022-12-05T17:37:53;9.80;;;5.00;;
52106;SDS011;38105;52.968;5.974;2022-12-05T17:40:19;9.18;;;5.60;;
52106;SDS011;38105;52.968;5.974;2022-12-05T17:42:44;7.50;;;4.60;;
52106;SDS011;38105;52.968;5.974;2022-12-05T17:45:11;6.68;;;4.75;;
52106;SDS011;38105;52.968;5.974;2022-12-05T17:47:38;11.57;;;4.78;;
52106;SDS011;38105;52.968;5.974;2022-12-05T17:50:04;7.25;;;5.13;;
52106;SDS011;38105;52.968;5.974;2022-12-05T17:52:31;7.80;;;5.20;;
52106;SDS011;38105;52.968;5.974;2022-12-05T17:54:57;5.50;;;4.05;;
52106;SDS011;38105;52.968;5.974;2022-12-05T17:57:23;7.75;;;4.72;;
52106;SDS011;38105;52.968;5.974;2022-12-05T17:59:49;7.22;;;4.72;;
52106;SDS011;38105;52.968;5.974;2022-12-05T18:02:14;8.10;;;4.82;;
52106;SDS011;38105;52.968;5.974;2022-12-05T18:04:42;6.15;;;4.50;;